Time;durP1;ratioP1;P1;durP2;ratioP2;P2;SDS_P1;SDS_P2;PMS_P1;PMS_P2;Temp;Humidity;BMP_temperature;BMP_pressure;BME280_temperature;BME280_humidity;BME280_pressure;Samples;Min_cycle;Max_cycle;Signal;HPM_P1;HPM_P2
2022/08/03 00:01:36;;;;;;;;;;;;;;;;;;4889365;29;19931;-73
2022/08/03 00:04:03;;;;;;;;;;;;;;;;;;4886976;29;19930;-72
2022/08/03 00:06:30;;;;;;;;;;;;;;;;;;4893495;29;19986;-73
2022/08/03 00:09:03;;;;;;;;;;;;;;;;;;4890939;29;19937;-73
2022/08/03 00:11:30;;;;;;;;;;;;;;;;;;4895121;29;19931;-72
2022/08/03 00:13:57;;;;;;;;;;;;;;;;;;4891883;29;20026;-72
2022/08/03 00:16:25;;;;;;;;;;;;;;;;;;4908483;29;19936;-74
2022/08/03 00:18:52;;;;;;;;;;;;;;;;;;4893483;29;19967;-73
2022/08/03 00:21:19;;;;;;;;;;;;;;;;;;4892800;29;19995;-72
2022/08/03 00:23:47;;;;;;;;;;;;;;;;;;4895191;29;19947;-72
2022/08/03 00:26:18;;;;;;;;;;;;;;;;;;4895340;29;19934;-72
2022/08/03 00:28:45;;;;;;;;;;;;;;;;;;4888847;29;19936;-73
2022/08/03 00:31:12;;;;;;;;;;;;;;;;;;4894624;29;19931;-72
2022/08/03 00:33:40;;;;;;;;;;;;;;;;;;4894135;29;19931;-73
2022/08/03 00:36:25;;;;;;;;;;;;;;;;;;4889765;29;19939;-72
2022/08/03 00:38:53;;;;;;;;;;;;;;;;;;4893734;29;19927;-72
2022/08/03 00:41:20;;;;;;;;;;;;;;;;;;4895133;29;21022;-74
2022/08/03 00:43:47;;;;;;;;;;;;;;;;;;4894787;29;19996;-72
2022/08/03 00:46:14;;;;;;;;;;;;;;;;;;4894442;29;19927;-73
2022/08/03 00:48:47;;;;;;;;;;;;;;;;;;4894075;29;19975;-73
2022/08/03 00:51:14;;;;;;;;;;;;;;;;;;4895524;29;19931;-73
2022/08/03 00:53:42;;;;;;;;;;;;;;;;;;4893086;29;21010;-72
2022/08/03 00:56:09;;;;;;;;;;;;;;;;;;4895293;29;20415;-72
2022/08/03 00:58:36;;;;;;;;;;;;;;;;;;4923966;23;19998;-81
2022/08/03 01:01:05;;;;;;;;;;;;;;;;;;4914834;29;19941;-82
2022/08/03 01:03:33;;;;;;;;;;;;;;;;;;4914536;29;19995;-82
2022/08/03 01:06:00;;;;;;;;;;;;;;;;;;4920737;29;19931;-82
2022/08/03 01:08:28;;;;;;;;;;;;;;;;;;4902151;29;19932;-82
2022/08/03 01:10:55;;;;;;;;;;;;;;;;;;4918247;29;19996;-82
2022/08/03 01:13:23;;;;;;;;;;;;;;;;;;4902083;29;19935;-82
2022/08/03 01:16:10;;;;;;;;;;;;;;;;;;4918130;29;19928;-83
2022/08/03 01:18:37;;;;;;;;;;;;;;;;;;4901672;29;19982;-83
2022/08/03 01:21:05;;;;;;;;;;;;;;;;;;4900268;29;20035;-83
2022/08/03 01:23:32;;;;;;;;;;;;;;;;;;4900149;29;19927;-83
2022/08/03 01:25:59;;;;;;;;;;;;;;;;;;4898958;29;19938;-83
2022/08/03 01:28:26;;;;;;;;;;;;;;;;;;4897431;29;19927;-83
2022/08/03 01:30:54;;;;;;;;;;;;;;;;;;4882333;29;19942;-83
2022/08/03 01:33:21;;;;;;;;;;;;;;;;;;4899472;29;19927;-84
2022/08/03 01:35:48;;;;;;;;;;;;;;;;;;4883114;29;19931;-83
2022/08/03 01:38:16;;;;;;;;;;;;;;;;;;4898145;29;20402;-83
2022/08/03 01:40:43;;;;;;;;;;;;;;;;;;4897219;29;19927;-82
2022/08/03 01:43:11;;;;;;;;;;;;;;;;;;4897661;29;19931;-82
2022/08/03 01:45:38;;;;;;;;;;;;;;;;;;4880946;29;19931;-82
2022/08/03 01:48:05;;;;;;;;;;;;;;;;;;4896749;29;19939;-83
2022/08/03 01:50:33;;;;;;;;;;;;;;;;;;4898342;29;19995;-83
2022/08/03 01:53:00;;;;;;;;;;;;;;;;;;4896342;29;20204;-83
2022/08/03 01:55:27;;;;;;;;;;;;;;;;;;4897762;29;20457;-83
2022/08/03 01:57:55;;;;;;;;;;;;;;;;;;4896781;29;19935;-83
2022/08/03 02:00:34;;;;;;;;;;;;;;;;;;4907346;29;20224;-84
2022/08/03 02:03:01;;;;;;;;;;;;;;;;;;4903399;29;20287;-82
2022/08/03 02:05:28;;;;;;;;;;;;;;;;;;4866972;29;19988;-83
2022/08/03 02:07:56;;;;;;;;;;;;;;;;;;4884430;29;19928;-83
2022/08/03 02:10:23;;;;;;;;;;;;;;;;;;4884905;29;19932;-83
2022/08/03 02:13:01;;;;;;;;;;;;;;;;;;4883420;29;19957;-82
2022/08/03 02:15:28;;;;;;;;;;;;;;;;;;4897600;29;19935;-83
2022/08/03 02:17:56;;;;;;;;;;;;;;;;;;4901074;29;20030;-83
2022/08/03 02:20:23;;;;;;;;;;;;;;;;;;4883925;29;19931;-82
2022/08/03 02:22:50;;;;;;;;;;;;;;;;;;4883280;29;19927;-82
2022/08/03 02:25:18;;;;;;;;;;;;;;;;;;4883731;29;19932;-82
2022/08/03 02:27:45;;;;;;;;;;;;;;;;;;4883130;29;19943;-83
2022/08/03 02:30:13;;;;;;;;;;;;;;;;;;4884804;29;19942;-83
2022/08/03 02:32:40;;;;;;;;;;;;;;;;;;4900474;29;20030;-83
2022/08/03 02:35:07;;;;;;;;;;;;;;;;;;4902885;29;19934;-83
2022/08/03 02:37:35;;;;;;;;;;;;;;;;;;4904537;29;19928;-82
2022/08/03 02:40:02;;;;;;;;;;;;;;;;;;4903610;29;20018;-83
2022/08/03 02:42:29;;;;;;;;;;;;;;;;;;4907453;29;20030;-82
2022/08/03 02:44:57;;;;;;;;;;;;;;;;;;4906411;29;19931;-82
2022/08/03 02:47:24;;;;;;;;;;;;;;;;;;4905357;29;20022;-83
2022/08/03 02:49:51;;;;;;;;;;;;;;;;;;4903898;29;20034;-82
2022/08/03 02:52:18;;;;;;;;;;;;;;;;;;4907013;29;19931;-82
2022/08/03 02:54:46;;;;;;;;;;;;;;;;;;4886227;29;19932;-82
2022/08/03 02:57:13;;;;;;;;;;;;;;;;;;4903242;29;19932;-83
2022/08/03 02:59:40;;;;;;;;;;;;;;;;;;4918499;29;19927;-82
2022/08/03 03:02:07;;;;;;;;;;;;;;;;;;4887418;29;19931;-83
2022/08/03 03:04:35;;;;;;;;;;;;;;;;;;4903503;29;19932;-83
2022/08/03 03:07:02;;;;;;;;;;;;;;;;;;4902432;29;20402;-83
2022/08/03 03:09:30;;;;;;;;;;;;;;;;;;4905393;29;19932;-82
2022/08/03 03:12:06;;;;;;;;;;;;;;;;;;4904882;29;19931;-83
2022/08/03 03:14:33;;;;;;;;;;;;;;;;;;4900023;29;20365;-82
2022/08/03 03:17:01;;;;;;;;;;;;;;;;;;4902619;29;19927;-82
2022/08/03 03:19:28;;;;;;;;;;;;;;;;;;4881384;29;20026;-83
2022/08/03 03:21:55;;;;;;;;;;;;;;;;;;4894845;29;20359;-83
2022/08/03 03:24:22;;;;;;;;;;;;;;;;;;4893865;29;19938;-83
2022/08/03 03:26:50;;;;;;;;;;;;;;;;;;4890163;29;20413;-83
2022/08/03 03:29:17;;;;;;;;;;;;;;;;;;4873754;29;20228;-82
2022/08/03 03:31:44;;;;;;;;;;;;;;;;;;4895848;29;19935;-82
2022/08/03 03:34:11;;;;;;;;;;;;;;;;;;4898724;29;19927;-82
2022/08/03 03:36:39;;;;;;;;;;;;;;;;;;4894263;29;19932;-82
2022/08/03 03:39:06;;;;;;;;;;;;;;;;;;4897237;29;20025;-83
2022/08/03 03:41:41;;;;;;;;;;;;;;;;;;4898153;29;20413;-83
2022/08/03 03:44:09;;;;;;;;;;;;;;;;;;4899127;29;19931;-82
2022/08/03 03:46:36;;;;;;;;;;;;;;;;;;4897613;29;19927;-83
2022/08/03 03:49:03;;;;;;;;;;;;;;;;;;4898802;29;19927;-83
2022/08/03 03:51:30;;;;;;;;;;;;;;;;;;4896910;29;19936;-82
2022/08/03 03:53:58;;;;;;;;;;;;;;;;;;4896755;29;19954;-83
2022/08/03 03:56:25;;;;;;;;;;;;;;;;;;4896333;29;19962;-83
2022/08/03 03:58:52;;;;;;;;;;;;;;;;;;4897913;29;19963;-83
2022/08/03 04:01:19;;;;;;;;;;;;;;;;;;4897643;29;20003;-83
2022/08/03 04:03:47;;;;;;;;;;;;;;;;;;4896522;29;20334;-83
2022/08/03 04:11:46;;;;;;;;;;;;;;;;;;4913729;29;19950;-82
2022/08/03 04:14:13;;;;;;;;;;;;;;;;;;4903409;29;19938;-83
2022/08/03 04:16:40;;;;;;;;;;;;;;;;;;4896045;29;20008;-83
2022/08/03 04:19:10;;;;;;;;;;;;;;;;;;4890475;29;19982;-83
2022/08/03 04:21:37;;;;;;;;;;;;;;;;;;4893466;29;20034;-83
2022/08/03 04:24:06;;;;;;;;;;;;;;;;;;4893098;29;19957;-83
2022/08/03 04:26:33;;;;;;;;;;;;;;;;;;4890592;29;20125;-83
2022/08/03 04:29:00;;;;;;;;;;;;;;;;;;4895205;29;20038;-82
2022/08/03 04:31:28;;;;;;;;;;;;;;;;;;4898274;29;19962;-81
2022/08/03 04:33:55;;;;;;;;;;;;;;;;;;4895741;29;19986;-83
2022/08/03 04:36:23;;;;;;;;;;;;;;;;;;4903297;29;20141;-83
2022/08/03 04:38:53;;;;;;;;;;;;;;;;;;4884329;29;20018;-83
2022/08/03 04:41:22;;;;;;;;;;;;;;;;;;4898375;29;20398;-84
2022/08/03 04:43:50;;;;;;;;;;;;;;;;;;4877568;29;19962;-83
2022/08/03 04:46:17;;;;;;;;;;;;;;;;;;4892321;29;19928;-84
2022/08/03 04:48:45;;;;;;;;;;;;;;;;;;4898475;29;20091;-82
2022/08/03 04:51:12;;;;;;;;;;;;;;;;;;4903758;29;19938;-83
2022/08/03 04:53:39;;;;;;;;;;;;;;;;;;4903119;29;19949;-83
2022/08/03 04:56:06;;;;;;;;;;;;;;;;;;4900634;29;19931;-83
2022/08/03 04:58:34;;;;;;;;;;;;;;;;;;4900450;29;20030;-82
2022/08/03 05:01:02;;;;;;;;;;;;;;;;;;4902434;29;19962;-85
2022/08/03 05:03:30;;;;;;;;;;;;;;;;;;4900590;29;19977;-82
2022/08/03 05:05:58;;;;;;;;;;;;;;;;;;4906122;29;19987;-84
2022/08/03 05:08:36;;;;;;;;;;;;;;;;;;4902709;29;19939;-83
2022/08/03 05:11:13;;;;;;;;;;;;;;;;;;4903894;29;19931;-84
2022/08/03 05:13:40;;;;;;;;;;;;;;;;;;4902601;29;19934;-83
2022/08/03 05:16:07;;;;;;;;;;;;;;;;;;4902106;29;19932;-83
2022/08/03 05:18:34;;;;;;;;;;;;;;;;;;4897767;29;19928;-82
2022/08/03 05:21:02;;;;;;;;;;;;;;;;;;4885904;29;19927;-83
2022/08/03 05:23:29;;;;;;;;;;;;;;;;;;4897639;29;19987;-82
2022/08/03 05:25:56;;;;;;;;;;;;;;;;;;4917320;29;19931;-82
2022/08/03 05:28:23;;;;;;;;;;;;;;;;;;4903371;29;19931;-83
2022/08/03 05:30:51;;;;;;;;;;;;;;;;;;4894567;29;20736;-84
2022/08/03 05:33:18;;;;;;;;;;;;;;;;;;4902246;29;19931;-83
2022/08/03 05:35:45;;;;;;;;;;;;;;;;;;4900048;29;20418;-83
2022/08/03 05:38:24;;;;;;;;;;;;;;;;;;4899515;29;19935;-82
2022/08/03 05:40:55;;;;;;;;;;;;;;;;;;4897997;29;20021;-83
2022/08/03 05:43:42;;;;;;;;;;;;;;;;;;4899225;29;19935;-84
2022/08/03 05:46:09;;;;;;;;;;;;;;;;;;4895767;29;19931;-83
2022/08/03 05:48:39;;;;;;;;;;;;;;;;;;4898599;29;19939;-84
2022/08/03 05:51:09;;;;;;;;;;;;;;;;;;4881364;29;19935;-84
2022/08/03 05:53:37;;;;;;;;;;;;;;;;;;4893562;29;19934;-84
2022/08/03 05:56:04;;;;;;;;;;;;;;;;;;4895643;29;20406;-85
2022/08/03 05:58:40;;;;;;;;;;;;;;;;;;4887257;29;19935;-84
2022/08/03 06:01:08;;;;;;;;;;;;;;;;;;4897267;29;20401;-83
2022/08/03 06:03:35;;;;;;;;;;;;;;;;;;4896860;29;19931;-87
2022/08/03 06:06:03;;;;;;;;;;;;;;;;;;4867880;29;20370;-83
2022/08/03 06:08:32;;;;;;;;;;;;;;;;;;4895410;29;19927;-83
2022/08/03 06:10:59;;;;;;;;;;;;;;;;;;4896914;29;20325;-83
2022/08/03 06:13:27;;;;;;;;;;;;;;;;;;4897632;29;19941;-83
2022/08/03 06:15:54;;;;;;;;;;;;;;;;;;4894109;29;19954;-84
2022/08/03 06:18:23;;;;;;;;;;;;;;;;;;4871014;29;20031;-82
2022/08/03 06:20:50;;;;;;;;;;;;;;;;;;4887347;29;19975;-83
2022/08/03 06:23:17;;;;;;;;;;;;;;;;;;4878644;29;20374;-83
2022/08/03 06:25:45;;;;;;;;;;;;;;;;;;4885202;29;19947;-84
2022/08/03 06:28:17;;;;;;;;;;;;;;;;;;4895040;29;20299;-83
2022/08/03 06:31:04;;;;;;;;;;;;;;;;;;4895095;29;19931;-84
2022/08/03 06:33:32;;;;;;;;;;;;;;;;;;4895491;29;19962;-83
2022/08/03 06:36:15;;;;;;;;;;;;;;;;;;4889826;29;20417;-83
2022/08/03 06:38:42;;;;;;;;;;;;;;;;;;4889712;29;20358;-83
2022/08/03 06:41:09;;;;;;;;;;;;;;;;;;4878585;29;20461;-83
2022/08/03 06:43:37;;;;;;;;;;;;;;;;;;4892835;29;19943;-83
2022/08/03 06:46:25;;;;;;;;;;;;;;;;;;4893732;29;20003;-82
2022/08/03 06:48:52;;;;;;;;;;;;;;;;;;4895098;29;19931;-83
2022/08/03 06:51:20;;;;;;;;;;;;;;;;;;4891801;29;19927;-83
2022/08/03 06:53:47;;;;;;;;;;;;;;;;;;4897076;29;20406;-84
2022/08/03 06:56:14;;;;;;;;;;;;;;;;;;4896891;29;19934;-84
2022/08/03 06:58:42;;;;;;;;;;;;;;;;;;4957824;23;19928;-74
2022/08/03 07:01:09;;;;;;;;;;;;;;;;;;4891163;29;19931;-74
2022/08/03 07:03:37;;;;;;;;;;;;;;;;;;4886385;29;20347;-73
2022/08/03 07:06:04;;;;;;;;;;;;;;;;;;4891392;29;19986;-73
2022/08/03 07:08:31;;;;;;;;;;;;;;;;;;4892891;29;19928;-72
2022/08/03 07:11:00;;;;;;;;;;;;;;;;;;4892059;29;20459;-73
2022/08/03 07:13:27;;;;;;;;;;;;;;;;;;4887312;29;19945;-73
2022/08/03 07:15:55;;;;;;;;;;;;;;;;;;4880772;29;20305;-74
2022/08/03 07:18:22;;;;;;;;;;;;;;;;;;4881005;29;19935;-74
2022/08/03 07:20:54;;;;;;;;;;;;;;;;;;4877404;29;19946;-73
2022/08/03 07:23:21;;;;;;;;;;;;;;;;;;4884763;29;19928;-72
2022/08/03 07:25:49;;;;;;;;;;;;;;;;;;4876715;29;20698;-73
2022/08/03 07:28:16;;;;;;;;;;;;;;;;;;4887325;29;20367;-73
2022/08/03 07:30:44;;;;;;;;;;;;;;;;;;4885869;29;20344;-73
2022/08/03 07:33:11;;;;;;;;;;;;;;;;;;4877068;29;19932;-73
2022/08/03 07:35:38;;;;;;;;;;;;;;;;;;4890265;29;19931;-72
2022/08/03 07:38:05;;;;;;;;;;;;;;;;;;4879458;29;20284;-73
2022/08/03 07:40:33;;;;;;;;;;;;;;;;;;4882158;29;20305;-73
2022/08/03 07:43:02;;;;;;;;;;;;;;;;;;4878307;29;19971;-72
2022/08/03 07:45:29;;;;;;;;;;;;;;;;;;4872623;29;19936;-72
2022/08/03 07:47:56;;;;;;;;;;;;;;;;;;4883529;29;19934;-72
2022/08/03 07:50:24;;;;;;;;;;;;;;;;;;4886142;29;20349;-73
2022/08/03 07:52:52;;;;;;;;;;;;;;;;;;4888743;29;19947;-72
2022/08/03 07:55:19;;;;;;;;;;;;;;;;;;4880512;29;19936;-73
2022/08/03 07:57:46;;;;;;;;;;;;;;;;;;4882662;29;19959;-73
2022/08/03 08:00:14;;;;;;;;;;;;;;;;;;4878423;29;20451;-72
2022/08/03 08:02:41;;;;;;;;;;;;;;;;;;4884323;29;19943;-73
2022/08/03 08:05:09;;;;;;;;;;;;;;;;;;4881509;29;20029;-73
2022/08/03 08:07:37;;;;;;;;;;;;;;;;;;4873984;29;20396;-73
2022/08/03 08:10:04;;;;;;;;;;;;;;;;;;4879124;29;20018;-73
2022/08/03 08:12:32;;;;;;;;;;;;;;;;;;4878921;29;19932;-73
2022/08/03 08:14:59;;;;;;;;;;;;;;;;;;4882979;29;20030;-74
2022/08/03 08:17:26;;;;;;;;;;;;;;;;;;4887309;29;19999;-74
2022/08/03 08:19:53;;;;;;;;;;;;;;;;;;4881606;29;19935;-73
2022/08/03 08:22:21;;;;;;;;;;;;;;;;;;4888798;29;19931;-74
2022/08/03 08:24:56;;;;;;;;;;;;;;;;;;4891672;29;19927;-73
2022/08/03 08:27:23;;;;;;;;;;;;;;;;;;4893680;29;19954;-72
2022/08/03 08:29:51;;;;;;;;;;;;;;;;;;4891479;29;19935;-73
2022/08/03 08:32:19;;;;;;;;;;;;;;;;;;4892961;29;20629;-73
2022/08/03 08:34:46;;;;;;;;;;;;;;;;;;4887053;29;20030;-71
2022/08/03 08:37:14;;;;;;;;;;;;;;;;;;4891214;29;20505;-72
2022/08/03 08:39:41;;;;;;;;;;;;;;;;;;4889688;29;20710;-72
2022/08/03 08:42:08;;;;;;;;;;;;;;;;;;4894108;29;19927;-73
2022/08/03 08:44:35;;;;;;;;;;;;;;;;;;4894335;29;19935;-72
2022/08/03 08:47:03;;;;;;;;;;;;;;;;;;4884292;29;19950;-72
2022/08/03 08:49:30;;;;;;;;;;;;;;;;;;4885978;29;20030;-72
2022/08/03 08:51:58;;;;;;;;;;;;;;;;;;4891874;29;19932;-72
2022/08/03 08:54:27;;;;;;;;;;;;;;;;;;4890093;29;20377;-72
2022/08/03 08:56:54;;;;;;;;;;;;;;;;;;4884930;29;19931;-73
2022/08/03 08:59:22;;;;;;;;;;;;;;;;;;4892716;29;19982;-73
2022/08/03 09:01:49;;;;;;;;;;;;;;;;;;4890556;29;19943;-73
2022/08/03 09:04:16;;;;;;;;;;;;;;;;;;4883519;29;19995;-72
2022/08/03 09:06:44;;;;;;;;;;;;;;;;;;4888547;29;20495;-73
2022/08/03 09:09:30;;;;;;;;;;;;;;;;;;4881978;29;19931;-75
2022/08/03 09:12:17;;;;;;;;;;;;;;;;;;4890233;29;19927;-73
2022/08/03 09:15:05;;;;;;;;;;;;;;;;;;4884021;29;19938;-71
2022/08/03 09:17:43;;;;;;;;;;;;;;;;;;4875052;29;19931;-72
2022/08/03 09:20:15;;;;;;;;;;;;;;;;;;4884114;29;19934;-73
2022/08/03 09:22:42;;;;;;;;;;;;;;;;;;4891820;29;19927;-73
2022/08/03 09:25:11;;;;;;;;;;;;;;;;;;4893184;29;19987;-72
2022/08/03 09:27:50;;;;;;;;;;;;;;;;;;4876633;29;19968;-73
2022/08/03 09:30:17;;;;;;;;;;;;;;;;;;4887430;29;19936;-74
2022/08/03 09:33:01;;;;;;;;;;;;;;;;;;4880411;29;19932;-72
2022/08/03 09:35:28;;;;;;;;;;;;;;;;;;4883406;29;19954;-72
2022/08/03 09:38:15;;;;;;;;;;;;;;;;;;4865237;29;19954;-74
2022/08/03 09:40:44;;;;;;;;;;;;;;;;;;4868147;29;19979;-74
2022/08/03 09:43:12;;;;;;;;;;;;;;;;;;4863239;29;20761;-73
2022/08/03 09:45:39;;;;;;;;;;;;;;;;;;4868247;29;20601;-73
2022/08/03 09:48:06;;;;;;;;;;;;;;;;;;4868171;29;19970;-73
2022/08/03 09:50:33;;;;;;;;;;;;;;;;;;4869601;29;19936;-74
2022/08/03 09:53:01;;;;;;;;;;;;;;;;;;4865042;29;20065;-74
2022/08/03 09:55:28;;;;;;;;;;;;;;;;;;4872879;29;19961;-74
2022/08/03 09:58:15;;;;;;;;;;;;;;;;;;4866424;29;19932;-72
2022/08/03 10:00:43;;;;;;;;;;;;;;;;;;4870056;29;20017;-73
2022/08/03 10:03:10;;;;;;;;;;;;;;;;;;4867818;29;19942;-72
2022/08/03 10:05:43;;;;;;;;;;;;;;;;;;4868507;29;19932;-72
2022/08/03 10:08:10;;;;;;;;;;;;;;;;;;4866968;29;20042;-73
2022/08/03 10:10:37;;;;;;;;;;;;;;;;;;4869669;29;20300;-73
2022/08/03 10:13:05;;;;;;;;;;;;;;;;;;4867583;29;20029;-73
2022/08/03 10:15:32;;;;;;;;;;;;;;;;;;4869532;29;20030;-73
2022/08/03 10:18:19;;;;;;;;;;;;;;;;;;4873639;29;20018;-73
2022/08/03 10:20:47;;;;;;;;;;;;;;;;;;4867687;29;20007;-74
2022/08/03 10:23:14;;;;;;;;;;;;;;;;;;4866209;29;20031;-73
2022/08/03 10:25:42;;;;;;;;;;;;;;;;;;4871622;29;20026;-73
2022/08/03 10:28:09;;;;;;;;;;;;;;;;;;4866300;29;20049;-74
2022/08/03 10:30:37;;;;;;;;;;;;;;;;;;4865973;29;19935;-73
2022/08/03 10:33:05;;;;;;;;;;;;;;;;;;4867780;29;19954;-74
2022/08/03 10:35:37;;;;;;;;;;;;;;;;;;4871828;29;20197;-73
2022/08/03 10:38:09;;;;;;;;;;;;;;;;;;4867873;29;21584;-72
2022/08/03 10:40:36;;;;;;;;;;;;;;;;;;4872358;29;19936;-73
2022/08/03 10:43:27;;;;;;;;;;;;;;;;;;4868163;29;20716;-72
2022/08/03 10:45:59;;;;;;;;;;;;;;;;;;4870004;29;19942;-73
2022/08/03 10:48:27;;;;;;;;;;;;;;;;;;4869987;29;20019;-72
2022/08/03 10:50:57;;;;;;;;;;;;;;;;;;4866386;29;19937;-73
2022/08/03 10:53:34;;;;;;;;;;;;;;;;;;4870179;29;20259;-72
2022/08/03 10:59:02;;;;;;;;;;;;;;;;;;4870990;29;19939;-74
2022/08/03 11:01:49;;;;;;;;;;;;;;;;;;4865253;29;20252;-74
2022/08/03 11:04:28;;;;;;;;;;;;;;;;;;4874681;29;20372;-73
2022/08/03 11:06:56;;;;;;;;;;;;;;;;;;4867682;29;19939;-73
2022/08/03 11:09:25;;;;;;;;;;;;;;;;;;4868659;29;20393;-73
2022/08/03 11:11:53;;;;;;;;;;;;;;;;;;4864021;29;20364;-74
2022/08/03 11:14:22;;;;;;;;;;;;;;;;;;4862821;29;19932;-74
2022/08/03 11:16:51;;;;;;;;;;;;;;;;;;4866828;29;19931;-74
2022/08/03 11:19:22;;;;;;;;;;;;;;;;;;4875539;29;19932;-75
2022/08/03 11:21:55;;;;;;;;;;;;;;;;;;4863493;29;20041;-75
2022/08/03 11:24:28;;;;;;;;;;;;;;;;;;4860236;29;20384;-75
2022/08/03 11:26:57;;;;;;;;;;;;;;;;;;4865918;29;20023;-75
2022/08/03 11:29:33;;;;;;;;;;;;;;;;;;4863924;29;20292;-73
2022/08/03 11:32:03;;;;;;;;;;;;;;;;;;4865045;29;20038;-73
2022/08/03 11:34:30;;;;;;;;;;;;;;;;;;4863494;29;20423;-74
2022/08/03 11:36:58;;;;;;;;;;;;;;;;;;4862832;29;20844;-74
2022/08/03 11:39:26;;;;;;;;;;;;;;;;;;4865134;29;19988;-72
2022/08/03 11:41:55;;;;;;;;;;;;;;;;;;4871070;29;20471;-74
2022/08/03 11:44:28;;;;;;;;;;;;;;;;;;4872176;29;19942;-73
2022/08/03 11:46:58;;;;;;;;;;;;;;;;;;4866274;29;19962;-76
2022/08/03 11:49:31;;;;;;;;;;;;;;;;;;4870686;29;20241;-73
2022/08/03 11:51:58;;;;;;;;;;;;;;;;;;4872485;29;20010;-73
2022/08/03 11:54:27;;;;;;;;;;;;;;;;;;4873283;29;19931;-74
2022/08/03 11:56:57;;;;;;;;;;;;;;;;;;4869547;29;19958;-73
2022/08/03 11:59:25;;;;;;;;;;;;;;;;;;4872662;29;20420;-74
2022/08/03 12:01:52;;;;;;;;;;;;;;;;;;4879847;29;19940;-72
2022/08/03 12:04:19;;;;;;;;;;;;;;;;;;4877080;29;19946;-74
2022/08/03 12:06:53;;;;;;;;;;;;;;;;;;4879222;29;20007;-73
2022/08/03 12:09:21;;;;;;;;;;;;;;;;;;4871569;29;20039;-73
2022/08/03 12:11:48;;;;;;;;;;;;;;;;;;4872304;29;20320;-74
2022/08/03 12:14:23;;;;;;;;;;;;;;;;;;4874897;29;19939;-74
2022/08/03 12:17:11;;;;;;;;;;;;;;;;;;4885853;29;19943;-74
2022/08/03 12:19:38;;;;;;;;;;;;;;;;;;4877055;29;20250;-73
2022/08/03 12:22:05;;;;;;;;;;;;;;;;;;4871920;29;20019;-73
2022/08/03 12:24:32;;;;;;;;;;;;;;;;;;4873004;29;19962;-70
2022/08/03 12:27:00;;;;;;;;;;;;;;;;;;4877617;29;20382;-73
2022/08/03 12:29:27;;;;;;;;;;;;;;;;;;4863554;29;19938;-74
2022/08/03 12:31:54;;;;;;;;;;;;;;;;;;4872708;29;19931;-73
2022/08/03 12:34:22;;;;;;;;;;;;;;;;;;4882940;29;20038;-72
2022/08/03 12:36:49;;;;;;;;;;;;;;;;;;4887178;29;19978;-72
2022/08/03 12:39:16;;;;;;;;;;;;;;;;;;4883402;29;19939;-74
2022/08/03 12:41:44;;;;;;;;;;;;;;;;;;4887594;29;20459;-72
2022/08/03 12:44:12;;;;;;;;;;;;;;;;;;4876631;29;19936;-74
2022/08/03 12:46:39;;;;;;;;;;;;;;;;;;4883984;29;20134;-73
2022/08/03 12:49:13;;;;;;;;;;;;;;;;;;4887962;29;19936;-73
2022/08/03 12:51:41;;;;;;;;;;;;;;;;;;4898188;29;19932;-72
2022/08/03 12:54:08;;;;;;;;;;;;;;;;;;4889123;29;20042;-73
2022/08/03 12:56:36;;;;;;;;;;;;;;;;;;4884814;29;19935;-73
2022/08/03 12:59:05;;;;;;;;;;;;;;;;;;4930632;23;19934;-84
2022/08/03 13:01:39;;;;;;;;;;;;;;;;;;4891403;29;19978;-84
2022/08/03 13:04:18;;;;;;;;;;;;;;;;;;4902740;29;20022;-84
2022/08/03 13:06:46;;;;;;;;;;;;;;;;;;4885271;29;20358;-84
2022/08/03 13:09:16;;;;;;;;;;;;;;;;;;4896519;29;20279;-85
2022/08/03 13:11:46;;;;;;;;;;;;;;;;;;4891201;29;19932;-85
2022/08/03 13:14:25;;;;;;;;;;;;;;;;;;4894280;29;20351;-85
2022/08/03 13:16:52;;;;;;;;;;;;;;;;;;4886310;29;20022;-86
2022/08/03 13:19:20;;;;;;;;;;;;;;;;;;4893659;29;19931;-85
2022/08/03 13:21:48;;;;;;;;;;;;;;;;;;4889007;29;19935;-84
2022/08/03 13:24:27;;;;;;;;;;;;;;;;;;4891602;29;20313;-85
2022/08/03 13:26:54;;;;;;;;;;;;;;;;;;4894484;29;20023;-84
2022/08/03 13:29:22;;;;;;;;;;;;;;;;;;4895377;29;20409;-83
2022/08/03 13:31:49;;;;;;;;;;;;;;;;;;4893971;29;19927;-84
2022/08/03 13:34:18;;;;;;;;;;;;;;;;;;4894311;29;20308;-84
2022/08/03 13:36:49;;;;;;;;;;;;;;;;;;4861854;29;19938;-83
2022/08/03 13:39:34;;;;;;;;;;;;;;;;;;4893464;29;20378;-84
2022/08/03 13:42:50;;;;;;;;;;;;;;;;;;4893127;29;19935;-85
2022/08/03 13:45:17;;;;;;;;;;;;;;;;;;4888599;29;19935;-84
2022/08/03 13:47:45;;;;;;;;;;;;;;;;;;4872862;29;19957;-84
2022/08/03 13:50:14;;;;;;;;;;;;;;;;;;4896340;29;19927;-85
2022/08/03 13:52:45;;;;;;;;;;;;;;;;;;4894508;29;20149;-85
2022/08/03 13:55:12;;;;;;;;;;;;;;;;;;4894393;29;19928;-85
2022/08/03 13:57:39;;;;;;;;;;;;;;;;;;4893166;29;20026;-84
2022/08/03 14:00:26;;;;;;;;;;;;;;;;;;4895062;29;20449;-85
2022/08/03 14:02:55;;;;;;;;;;;;;;;;;;4875604;29;19974;-85
2022/08/03 14:05:30;;;;;;;;;;;;;;;;;;4890036;29;20434;-84
2022/08/03 14:08:00;;;;;;;;;;;;;;;;;;4883008;29;19939;-86
2022/08/03 14:10:31;;;;;;;;;;;;;;;;;;4890489;29;19931;-84
2022/08/03 14:12:59;;;;;;;;;;;;;;;;;;4888727;29;19967;-85
2022/08/03 14:15:27;;;;;;;;;;;;;;;;;;4891524;29;19935;-84
2022/08/03 14:17:55;;;;;;;;;;;;;;;;;;4890541;29;19938;-84
2022/08/03 14:20:22;;;;;;;;;;;;;;;;;;4895404;29;19932;-84
2022/08/03 14:23:03;;;;;;;;;;;;;;;;;;4896757;29;19928;-84
2022/08/03 14:25:32;;;;;;;;;;;;;;;;;;4891868;29;19931;-85
2022/08/03 14:28:09;;;;;;;;;;;;;;;;;;4909371;29;19995;-85
2022/08/03 14:30:38;;;;;;;;;;;;;;;;;;4910093;29;20022;-83
2022/08/03 14:33:05;;;;;;;;;;;;;;;;;;4909771;29;20006;-85
2022/08/03 14:35:33;;;;;;;;;;;;;;;;;;4888794;29;19932;-84
2022/08/03 14:38:15;;;;;;;;;;;;;;;;;;4913069;29;19938;-84
2022/08/03 14:40:42;;;;;;;;;;;;;;;;;;4903226;29;20481;-88
2022/08/03 14:43:09;;;;;;;;;;;;;;;;;;4896994;29;20000;-86
2022/08/03 14:45:37;;;;;;;;;;;;;;;;;;4894398;29;19963;-85
2022/08/03 14:48:04;;;;;;;;;;;;;;;;;;4893448;29;19998;-85
2022/08/03 14:50:55;;;;;;;;;;;;;;;;;;4897456;29;19936;-85
2022/08/03 14:53:23;;;;;;;;;;;;;;;;;;4900679;29;20357;-86
2022/08/03 14:55:52;;;;;;;;;;;;;;;;;;4902957;29;20017;-86
2022/08/03 14:58:20;;;;;;;;;;;;;;;;;;4891933;29;20518;-85
2022/08/03 15:00:48;;;;;;;;;;;;;;;;;;4906032;29;20405;-85
2022/08/03 15:03:15;;;;;;;;;;;;;;;;;;4891316;29;19928;-84
2022/08/03 15:05:43;;;;;;;;;;;;;;;;;;4890474;29;19928;-84
2022/08/03 15:08:10;;;;;;;;;;;;;;;;;;4894843;29;20398;-86
2022/08/03 15:10:38;;;;;;;;;;;;;;;;;;4874425;29;19935;-84
2022/08/03 15:13:10;;;;;;;;;;;;;;;;;;4888607;29;19975;-83
2022/08/03 15:15:37;;;;;;;;;;;;;;;;;;4887435;29;19927;-84
2022/08/03 15:18:04;;;;;;;;;;;;;;;;;;4889888;29;19939;-86
2022/08/03 15:20:31;;;;;;;;;;;;;;;;;;4887345;29;19928;-86
2022/08/03 15:23:10;;;;;;;;;;;;;;;;;;4889190;29;20397;-85
2022/08/03 15:25:37;;;;;;;;;;;;;;;;;;4888639;29;19958;-86
2022/08/03 15:28:24;;;;;;;;;;;;;;;;;;4891410;29;19938;-84
2022/08/03 15:30:52;;;;;;;;;;;;;;;;;;4893816;29;20043;-85
2022/08/03 15:33:19;;;;;;;;;;;;;;;;;;4885773;29;20397;-84
2022/08/03 15:35:46;;;;;;;;;;;;;;;;;;4895799;29;19932;-85
2022/08/03 15:38:14;;;;;;;;;;;;;;;;;;4873522;29;20016;-86
2022/08/03 15:40:41;;;;;;;;;;;;;;;;;;4897297;29;19954;-86
2022/08/03 15:43:08;;;;;;;;;;;;;;;;;;4895503;29;20058;-84
2022/08/03 15:45:37;;;;;;;;;;;;;;;;;;4901267;29;19970;-86
2022/08/03 15:48:06;;;;;;;;;;;;;;;;;;4899741;29;19927;-87
2022/08/03 15:50:34;;;;;;;;;;;;;;;;;;4904790;29;19974;-86
2022/08/03 15:53:02;;;;;;;;;;;;;;;;;;4905954;29;19927;-85
2022/08/03 15:55:30;;;;;;;;;;;;;;;;;;4903584;29;19927;-87
2022/08/03 15:57:57;;;;;;;;;;;;;;;;;;4888536;29;20294;-85
2022/08/03 16:00:44;;;;;;;;;;;;;;;;;;4902115;29;19942;-85
2022/08/03 16:03:12;;;;;;;;;;;;;;;;;;4902238;29;20469;-84
2022/08/03 16:05:42;;;;;;;;;;;;;;;;;;4902959;29;19932;-86
2022/08/03 16:08:09;;;;;;;;;;;;;;;;;;4893589;29;19927;-85
2022/08/03 16:10:40;;;;;;;;;;;;;;;;;;4894838;29;19935;-85
2022/08/03 16:13:07;;;;;;;;;;;;;;;;;;4888009;29;20059;-85
2022/08/03 16:15:34;;;;;;;;;;;;;;;;;;4892287;29;19927;-84
2022/08/03 16:18:04;;;;;;;;;;;;;;;;;;4892093;29;19938;-86
2022/08/03 16:20:32;;;;;;;;;;;;;;;;;;4892601;29;20412;-85
2022/08/03 16:23:00;;;;;;;;;;;;;;;;;;4875307;29;19938;-86
2022/08/03 16:25:37;;;;;;;;;;;;;;;;;;4892683;29;19932;-86
2022/08/03 16:28:08;;;;;;;;;;;;;;;;;;4891772;29;20018;-84
2022/08/03 16:30:40;;;;;;;;;;;;;;;;;;4886696;29;19943;-85
2022/08/03 16:33:07;;;;;;;;;;;;;;;;;;4886776;29;19932;-85
2022/08/03 16:35:34;;;;;;;;;;;;;;;;;;4892320;29;19928;-85
2022/08/03 16:38:02;;;;;;;;;;;;;;;;;;4885995;29;20488;-84
2022/08/03 16:40:34;;;;;;;;;;;;;;;;;;4886240;29;19931;-84
2022/08/03 16:43:01;;;;;;;;;;;;;;;;;;4892012;29;19927;-85
2022/08/03 16:45:30;;;;;;;;;;;;;;;;;;4895350;29;19931;-85
2022/08/03 16:47:57;;;;;;;;;;;;;;;;;;4901126;29;20435;-83
2022/08/03 16:50:28;;;;;;;;;;;;;;;;;;4912765;29;19958;-83
2022/08/03 16:52:55;;;;;;;;;;;;;;;;;;4915317;29;20429;-84
2022/08/03 16:55:22;;;;;;;;;;;;;;;;;;4899962;29;20317;-86
2022/08/03 16:58:09;;;;;;;;;;;;;;;;;;4897101;29;19970;-85
2022/08/03 17:00:38;;;;;;;;;;;;;;;;;;4895436;29;20422;-85
2022/08/03 17:03:09;;;;;;;;;;;;;;;;;;4897982;29;19927;-84
2022/08/03 17:05:45;;;;;;;;;;;;;;;;;;4896958;29;20377;-86
2022/08/03 17:08:14;;;;;;;;;;;;;;;;;;4897884;29;20029;-86
2022/08/03 17:10:41;;;;;;;;;;;;;;;;;;4896940;29;19938;-84